North Bend, OR (97459)

12:11 AM PDT on May 30, 2017 (GMT -0700)
Edd Family | | Change Station

Elev 120 ft 43.40 °N, 124.25 °W | Updated 19 seconds ago

Overcast
Overcast
53.2 °F
Feels Like 53.2 °F
N
0.0
Wind Variable Wind from South
Gusts 0.0 mph

Today
High -- | Low -- °F
--% Chance of Precip.
Yesterday
High -- | Low -- °F
Precip. -- in
Pressure 30.06 in
Visibility 4.0 miles
Clouds Few 500 ft
Scattered Clouds 900 ft
Overcast 1200 ft
Dew Point 52 °F
Humidity 93%
Rainfall 0.00 in
Snow Depth Not available.
5:39 AM 8:49 PM
Waxing Crescent, 27% visible
METAR KOTH 300655Z 35005KT 4SM FEW005 SCT009 OVC012 12/11 A3006 RMK AO1
Pressure 30.06 in
Visibility 4.0 miles
Clouds Few 500 ft
Scattered Clouds 900 ft
Overcast 1200 ft
Dew Point 52 °F
Humidity 93%
Rainfall 0.00 in
Snow Depth Not available.
5:39 AM 8:49 PM
Waxing Crescent, 27% visible
METAR KOTH 300655Z 35005KT 4SM FEW005 SCT009 OVC012 12/11 A3006 RMK AO1

Get Severe Weather Alerts

Thanks for signing up!

Be on the lookout for a verification email in your inbox.

You'll start receiving the daily forecast at 6 AM.

×

10-Day Weather Forecast

Almanac

Astronomy

May. 30, 2017 Rise Set
Actual Time
Civil Twilight
Nautical Twilight
Astronomical Twilight
Moon
Length of Visible Light
Length of Day
Tomorrow will be .
, % of the Moon is Illuminated

Today's Extremes

State Highs State Lows

Community

WunderPhotos

Category 6

Welcome to Category 6. This is the collective home for Weather Underground's featured writeups by Dr. Jeff Masters (right), Bob Henson (left), Chris Burt, and other regular contributors.

Nearby

Air Quality

  Air Quality AQ Index Pollutant
Not available.

Snow Depth

Station Depth Elevation

Earthquake Activity

City Distance Mag. Time & Date
Minimum magnitude displayed is 2.5.

Coastal Water Temperatures

Place Temperature

Stations

Nearby Weather Stations

Station Location Temp. Windchill Dew Point Humidity Wind Precip. Elev Updated Type
                   

Watches & Warnings

There are currently no watches in effect.